Time;durP1;ratioP1;P1;durP2;ratioP2;P2;SDS_P1;SDS_P2;PMS_P1;PMS_P2;Temp;Humidity;BMP_temperature;BMP_pressure;BME280_temperature;BME280_humidity;BME280_pressure;Samples;Min_cycle;Max_cycle;Signal;HPM_P1;HPM_P2
2022/07/02 00:01:14;;;;;;;4.33;1.23;;;;;;;12.68;83.70;99274.44;5033578;28;20210;-50
2022/07/02 00:03:49;;;;;;;2.00;0.70;;;;;;;12.57;84.51;99271.22;5033667;28;20188;-50
2022/07/02 00:06:19;;;;;;;1.40;0.67;;;;;;;12.52;84.03;99277.72;5033513;28;20639;-50
2022/07/02 00:08:47;;;;;;;1.63;0.70;;;;;;;12.55;84.68;99272.19;5033777;28;20205;-50
2022/07/02 00:11:15;;;;;;;1.37;0.77;;;;;;;12.58;84.52;99276.28;5031932;28;20207;-50
2022/07/02 00:13:43;;;;;;;1.67;0.70;;;;;;;12.56;84.66;99270.38;5033610;28;20239;-51
2022/07/02 00:16:12;;;;;;;2.07;0.70;;;;;;;12.57;84.35;99279.06;5033528;28;20524;-50
2022/07/02 00:18:39;;;;;;;2.53;0.70;;;;;;;12.56;84.38;99267.75;5033471;28;20201;-51
2022/07/02 00:21:07;;;;;;;2.93;0.67;;;;;;;12.52;84.48;99269.03;5033220;28;20233;-50
2022/07/02 00:23:35;;;;;;;1.03;0.73;;;;;;;12.48;85.48;99263.28;5031982;28;20207;-50
2022/07/02 00:26:08;;;;;;;1.17;0.73;;;;;;;12.45;85.67;99270.59;5031628;28;20278;-52
2022/07/02 00:28:41;;;;;;;5.07;0.60;;;;;;;12.43;85.67;99268.13;5033406;28;20205;-50
2022/07/02 00:31:09;;;;;;;2.73;0.90;;;;;;;12.49;85.44;99262.31;5033040;28;20297;-50
2022/07/02 00:33:38;;;;;;;1.63;0.70;;;;;;;12.59;85.67;99264.84;5031842;28;20713;-50
2022/07/02 00:36:07;;;;;;;1.87;0.70;;;;;;;12.54;85.50;99262.69;5033061;28;20186;-50
2022/07/02 00:38:52;;;;;;;3.27;0.80;;;;;;;12.50;86.13;99263.09;5033311;28;20668;-50
2022/07/02 00:41:22;;;;;;;0.83;0.60;;;;;;;12.45;86.04;99254.88;5031247;28;20548;-51
2022/07/02 00:43:51;;;;;;;1.73;1.00;;;;;;;12.42;86.70;99265.63;5031948;28;20194;-50
2022/07/02 00:46:22;;;;;;;3.33;0.80;;;;;;;12.38;87.85;99267.75;5031768;28;20272;-50
2022/07/02 00:48:50;;;;;;;0.87;0.60;;;;;;;12.37;86.90;99268.72;5032557;28;20613;-50
2022/07/02 00:51:17;;;;;;;3.30;0.60;;;;;;;12.33;87.22;99264.72;5030504;28;20212;-50
2022/07/02 00:53:45;;;;;;;2.37;0.67;;;;;;;12.29;86.86;99264.19;5032385;28;20232;-50
2022/07/02 00:56:12;;;;;;;1.53;0.60;;;;;;;12.29;86.11;99272.03;5032656;28;20191;-50
2022/07/02 00:58:41;;;;;;;2.00;0.87;;;;;;;12.29;85.58;99266.81;5032750;28;20201;-50
2022/07/02 01:01:09;;;;;;;3.07;0.90;;;;;;;12.25;85.16;99266.28;5031813;28;20207;-50
2022/07/02 01:03:36;;;;;;;3.43;0.87;;;;;;;12.29;86.53;99261.56;5032687;28;20635;-50
2022/07/02 01:06:04;;;;;;;3.33;0.70;;;;;;;12.32;85.03;99260.47;5031987;28;20233;-50
2022/07/02 01:11:19;;;;;;;2.93;0.60;;;;;;;12.20;87.30;99258.03;5032170;28;20586;-50
2022/07/02 01:14:05;;;;;;;2.17;0.80;;;;;;;12.17;87.50;99255.72;5032770;28;20240;-50
2022/07/02 01:16:32;;;;;;;0.80;0.50;;;;;;;12.13;85.89;99254.38;5032267;28;20182;-52
2022/07/02 01:18:59;;;;;;;2.37;0.70;;;;;;;12.05;86.31;99259.50;5032156;28;20182;-50
2022/07/02 01:21:26;;;;;;;1.53;0.60;;;;;;;12.08;87.69;99249.56;5031371;28;20325;-50
2022/07/02 01:23:55;;;;;;;1.77;0.70;;;;;;;12.12;88.22;99252.72;5030956;28;20190;-50
2022/07/02 01:26:23;;;;;;;2.83;0.60;;;;;;;12.12;87.50;99249.28;5032201;28;20735;-50
2022/07/02 01:28:50;;;;;;;0.67;0.47;;;;;;;12.13;87.71;99250.94;5032281;28;20210;-50
2022/07/02 01:31:19;;;;;;;0.80;0.60;;;;;;;12.04;87.95;99252.63;5031816;28;20756;-50
2022/07/02 01:33:46;;;;;;;2.03;0.63;;;;;;;12.04;88.54;99253.44;5032239;28;20193;-50
2022/07/02 01:36:14;;;;;;;1.00;0.90;;;;;;;12.06;88.89;99251.50;5031901;28;20242;-52
2022/07/02 01:38:41;;;;;;;2.00;0.80;;;;;;;12.04;87.58;99244.75;5030707;28;20651;-50
2022/07/02 01:43:56;;;;;;;1.93;1.03;;;;;;;11.98;87.17;99232.22;5030983;28;20196;-50
2022/07/02 01:46:41;;;;;;;0.67;0.60;;;;;;;11.98;87.28;99234.84;5032083;28;20284;-51
2022/07/02 01:49:08;;;;;;;0.70;0.60;;;;;;;11.95;86.90;99242.00;5029507;28;20255;-50
2022/07/02 01:51:36;;;;;;;0.60;0.57;;;;;;;11.94;86.91;99236.94;5030465;28;20332;-51
2022/07/02 01:54:03;;;;;;;1.03;0.70;;;;;;;11.91;87.80;99240.66;5030722;28;20190;-50
2022/07/02 01:56:33;;;;;;;1.70;0.70;;;;;;;11.89;87.81;99229.50;5029858;28;20625;-50
2022/07/02 01:58:59;;;;;;;2.20;0.87;;;;;;;11.90;87.90;99236.38;5029380;28;20200;-50
2022/07/02 02:01:27;;;;;;;1.50;0.97;;;;;;;11.94;87.12;99235.13;5031172;28;20243;-50
2022/07/02 02:03:55;;;;;;;2.47;0.90;;;;;;;11.90;87.29;99225.91;5034630;28;20560;-50
2022/07/02 02:06:22;;;;;;;2.10;0.80;;;;;;;11.96;89.41;99235.00;5035522;28;20256;-50
2022/07/02 02:08:50;;;;;;;2.67;0.80;;;;;;;11.87;89.55;99234.06;5035501;28;20194;-50
2022/07/02 02:11:18;;;;;;;1.27;0.60;;;;;;;11.89;88.78;99239.97;5034664;28;20565;-50
2022/07/02 02:13:47;;;;;;;1.23;0.70;;;;;;;11.86;88.07;99235.03;5035428;28;20592;-50
2022/07/02 02:16:13;;;;;;;3.60;0.77;;;;;;;11.81;86.93;99224.16;5034779;28;20714;-50
2022/07/02 02:18:41;;;;;;;2.10;0.60;;;;;;;11.83;89.49;99227.47;5035355;28;20188;-51
2022/07/02 02:21:09;;;;;;;1.93;0.80;;;;;;;11.76;89.63;99232.47;5035237;28;20209;-50
2022/07/02 02:23:36;;;;;;;2.57;0.83;;;;;;;11.73;88.46;99224.91;5035554;28;20188;-50
2022/07/02 02:26:04;;;;;;;1.47;1.27;;;;;;;11.67;89.40;99231.50;5034951;28;20247;-50
2022/07/02 02:28:31;;;;;;;2.00;0.87;;;;;;;11.60;89.54;99227.00;5035277;28;20689;-50
2022/07/02 02:30:59;;;;;;;1.23;0.77;;;;;;;11.56;89.42;99228.25;5034129;28;20213;-50
2022/07/02 02:33:27;;;;;;;1.80;0.60;;;;;;;11.51;89.96;99231.31;5034860;28;20198;-50
2022/07/02 02:35:54;;;;;;;2.27;0.87;;;;;;;11.47;90.45;99228.13;5034992;28;20209;-51
2022/07/02 02:38:21;;;;;;;3.70;0.87;;;;;;;11.58;91.46;99232.41;5035118;28;20219;-51
2022/07/02 02:40:48;;;;;;;2.43;0.70;;;;;;;11.56;91.28;99233.50;5034904;28;20233;-51
2022/07/02 02:43:15;;;;;;;4.07;0.90;;;;;;;11.61;90.77;99232.09;5035293;28;20188;-50
2022/07/02 02:45:43;;;;;;;4.60;0.90;;;;;;;11.60;89.75;99232.25;5034883;28;20299;-50
2022/07/02 02:48:12;;;;;;;2.50;0.90;;;;;;;11.63;89.72;99229.34;5034952;28;20220;-51
2022/07/02 02:50:39;;;;;;;2.77;0.80;;;;;;;11.54;88.86;99232.81;5034755;28;20271;-50
2022/07/02 02:53:07;;;;;;;2.00;0.87;;;;;;;11.47;89.77;99235.19;5035011;28;20194;-51
2022/07/02 02:55:34;;;;;;;0.67;0.67;;;;;;;11.52;89.61;99222.50;5034700;28;20565;-51
2022/07/02 02:58:02;;;;;;;0.90;0.77;;;;;;;11.59;88.34;99228.81;5033909;28;20241;-50
2022/07/02 03:00:28;;;;;;;4.63;1.00;;;;;;;11.68;89.25;99227.13;5033712;28;20266;-51
2022/07/02 03:02:56;;;;;;;0.90;0.70;;;;;;;11.70;88.62;99232.19;5033974;28;20194;-50
2022/07/02 03:05:25;;;;;;;2.10;0.73;;;;;;;11.81;87.59;99237.25;5033920;28;20210;-50
2022/07/02 03:07:52;;;;;;;2.10;0.73;;;;;;;11.75;88.45;99237.81;5034174;28;20194;-50
2022/07/02 03:10:20;;;;;;;3.67;0.80;;;;;;;11.75;90.10;99235.19;5034587;28;20237;-51
2022/07/02 03:12:47;;;;;;;2.87;0.80;;;;;;;11.74;89.41;99238.78;5034305;28;20180;-50
2022/07/02 03:15:14;;;;;;;1.87;0.80;;;;;;;11.75;87.58;99241.28;5034600;28;20265;-50
2022/07/02 03:17:42;;;;;;;2.23;0.80;;;;;;;11.75;87.00;99232.59;5034506;28;20233;-50
2022/07/02 03:20:09;;;;;;;3.80;0.90;;;;;;;11.80;89.50;99235.59;5034106;28;20213;-50
2022/07/02 03:22:38;;;;;;;0.93;0.63;;;;;;;11.69;89.71;99231.38;5034742;28;20220;-51
2022/07/02 03:25:07;;;;;;;3.50;0.80;;;;;;;11.70;88.23;99237.44;5034312;28;20229;-51
2022/07/02 03:27:35;;;;;;;1.00;0.80;;;;;;;11.73;89.07;99235.38;5033145;28;20199;-50
2022/07/02 03:30:02;;;;;;;1.73;0.70;;;;;;;11.71;87.16;99241.69;5034269;28;20212;-50
2022/07/02 03:32:31;;;;;;;4.13;0.80;;;;;;;11.67;87.68;99236.75;5034403;28;20193;-50
2022/07/02 03:34:58;;;;;;;1.37;0.90;;;;;;;11.66;87.27;99239.50;5034545;28;20192;-50
2022/07/02 03:37:28;;;;;;;0.90;0.70;;;;;;;11.73;87.27;99251.06;5034405;28;20212;-50
2022/07/02 03:40:14;;;;;;;2.50;0.60;;;;;;;11.82;87.93;99250.19;5034082;28;20613;-50
2022/07/02 03:42:42;;;;;;;7.90;0.70;;;;;;;11.85;88.14;99250.88;5034361;28;20243;-52
2022/07/02 03:45:11;;;;;;;1.50;0.60;;;;;;;11.87;89.30;99255.00;5034193;28;20185;-50
2022/07/02 03:47:38;;;;;;;0.67;0.53;;;;;;;11.85;89.79;99253.50;5032722;28;20201;-50
2022/07/02 03:50:06;;;;;;;2.33;0.93;;;;;;;11.96;88.75;99253.31;5034078;28;20231;-50
2022/07/02 03:52:34;;;;;;;1.90;0.80;;;;;;;11.90;88.55;99262.53;5034068;28;20194;-51
2022/07/02 03:55:02;;;;;;;1.37;0.60;;;;;;;11.96;88.76;99261.16;5034415;28;20202;-50
2022/07/02 03:57:49;;;;;;;1.37;0.70;;;;;;;11.93;89.25;99264.88;5034366;28;20197;-50
2022/07/02 04:00:17;;;;;;;0.70;0.60;;;;;;;11.99;89.00;99266.09;5033649;28;20631;-50
2022/07/02 04:02:44;;;;;;;1.07;0.60;;;;;;;12.00;90.49;99254.72;5034221;28;20274;-51
2022/07/02 04:05:11;;;;;;;1.73;0.60;;;;;;;11.96;90.57;99255.94;5033736;28;20200;-51
2022/07/02 04:07:38;;;;;;;1.67;0.70;;;;;;;11.99;91.11;99257.41;5032987;28;20744;-50
2022/07/02 04:10:07;;;;;;;1.30;0.60;;;;;;;12.03;91.02;99256.19;5032616;28;20210;-50
2022/07/02 04:12:35;;;;;;;0.67;0.60;;;;;;;12.01;90.57;99255.50;5033074;28;20179;-50
2022/07/02 04:15:05;;;;;;;2.87;0.60;;;;;;;12.10;90.43;99249.41;5033957;28;20574;-51
2022/07/02 04:17:32;;;;;;;1.80;1.00;;;;;;;12.12;91.20;99247.47;5033753;28;20197;-50
2022/07/02 04:20:00;;;;;;;1.53;0.83;;;;;;;12.09;90.62;99247.78;5033617;28;20222;-51
2022/07/02 04:22:28;;;;;;;2.47;0.80;;;;;;;12.12;90.21;99252.72;5033808;28;20570;-50
2022/07/02 04:24:55;;;;;;;0.67;0.50;;;;;;;12.18;91.79;99254.75;5033165;28;20239;-51
2022/07/02 04:27:22;;;;;;;0.70;0.70;;;;;;;12.23;92.05;99251.69;5033073;28;20221;-52
2022/07/02 04:29:50;;;;;;;0.83;0.60;;;;;;;12.25;92.35;99252.34;5033594;28;20248;-51
2022/07/02 04:32:19;;;;;;;0.87;0.57;;;;;;;12.33;91.29;99256.88;5033597;28;20191;-50
2022/07/02 04:34:47;;;;;;;1.23;0.80;;;;;;;12.31;91.07;99253.59;5033371;28;20193;-50
2022/07/02 04:37:14;;;;;;;3.22;0.88;;;;;;;12.35;91.20;99249.72;5031107;28;20429;-50
2022/07/02 04:39:42;;;;;;;2.40;0.60;;;;;;;12.36;91.87;99246.13;5033328;28;20187;-50
2022/07/02 04:42:09;;;;;;;2.80;0.90;;;;;;;12.36;92.04;99249.53;5033526;28;20190;-50
2022/07/02 04:44:37;;;;;;;1.87;0.60;;;;;;;12.39;91.61;99256.28;5033449;28;20192;-50
2022/07/02 04:47:05;;;;;;;2.43;0.60;;;;;;;12.43;90.06;99259.44;5033393;28;20705;-51
2022/07/02 04:49:33;;;;;;;0.83;0.63;;;;;;;12.45;92.23;99254.88;5033366;28;20852;-50
2022/07/02 04:52:01;;;;;;;1.57;0.70;;;;;;;12.43;91.86;99256.81;5033445;28;20213;-51
2022/07/02 04:54:28;;;;;;;0.97;0.87;;;;;;;12.45;92.31;99254.88;5032270;28;20205;-50
2022/07/02 04:56:56;;;;;;;2.20;0.80;;;;;;;12.46;91.49;99259.97;5032921;28;20196;-50
2022/07/02 04:59:24;;;;;;;2.17;0.80;;;;;;;12.46;91.70;99257.34;5033337;28;20264;-50
2022/07/02 05:01:52;;;;;;;0.83;0.67;;;;;;;12.46;91.51;99259.97;5033300;28;20217;-51
2022/07/02 05:04:19;;;;;;;1.27;0.80;;;;;;;12.45;91.70;99260.09;5033142;28;20272;-52
2022/07/02 05:06:48;;;;;;;3.30;1.07;;;;;;;12.48;92.09;99263.28;5031618;28;20226;-50
2022/07/02 05:09:16;;;;;;;2.50;0.80;;;;;;;12.50;92.34;99257.88;5033260;28;20190;-50
2022/07/02 05:11:43;;;;;;;1.20;0.60;;;;;;;12.45;92.80;99260.09;5032639;28;20213;-50
2022/07/02 05:14:11;;;;;;;2.07;0.90;;;;;;;12.46;93.45;99254.75;5033121;28;20248;-51
2022/07/02 05:16:38;;;;;;;2.67;0.87;;;;;;;12.51;93.04;99254.28;5032660;28;20213;-51
2022/07/02 05:19:05;;;;;;;2.53;0.93;;;;;;;12.51;93.74;99259.53;5032804;28;20196;-51
2022/07/02 05:21:32;;;;;;;4.00;0.90;;;;;;;12.58;93.59;99260.56;5032580;28;20214;-50
2022/07/02 05:24:02;;;;;;;1.80;0.80;;;;;;;12.65;92.90;99260.81;5033042;28;20613;-50
2022/07/02 05:26:47;;;;;;;1.30;0.80;;;;;;;12.70;93.01;99254.16;5033098;28;20285;-50
2022/07/02 05:29:14;;;;;;;1.40;0.80;;;;;;;12.76;94.27;99262.38;5032766;28;20264;-50
2022/07/02 05:31:42;;;;;;;1.47;0.80;;;;;;;12.79;94.10;99262.91;5031583;28;20714;-50
2022/07/02 05:34:09;;;;;;;1.00;0.90;;;;;;;12.84;94.38;99260.66;5033133;28;20184;-51
2022/07/02 05:36:36;;;;;;;0.90;0.80;;;;;;;12.92;94.60;99261.69;5033506;28;20189;-51
2022/07/02 05:39:05;;;;;;;1.43;0.90;;;;;;;12.98;94.89;99256.69;5037280;28;20589;-50
2022/07/02 05:41:32;;;;;;;3.70;0.80;;;;;;;13.08;94.50;99271.53;5036554;28;20205;-51
2022/07/02 05:43:59;;;;;;;1.27;0.80;;;;;;;13.33;94.24;99271.69;5037019;28;20241;-50
2022/07/02 05:46:26;;;;;;;1.23;0.67;;;;;;;13.77;93.73;99266.44;5036779;28;20207;-51
2022/07/02 05:48:54;;;;;;;3.00;0.80;;;;;;;14.33;92.44;99268.63;5037486;28;20650;-50
2022/07/02 05:51:20;;;;;;;1.47;0.80;;;;;;;14.75;89.15;99269.59;5037201;28;20224;-50
2022/07/02 05:53:48;;;;;;;1.43;0.70;;;;;;;15.05;87.67;99268.16;5037111;28;20655;-50
2022/07/02 05:56:16;;;;;;;2.33;0.80;;;;;;;15.28;86.15;99262.22;5037002;28;20184;-50
2022/07/02 05:58:44;;;;;;;2.57;0.70;;;;;;;15.42;84.57;99273.03;5037402;28;20214;-50
2022/07/02 06:01:11;;;;;;;0.90;0.63;;;;;;;15.57;83.80;99271.38;5037223;28;20207;-50
2022/07/02 06:03:39;;;;;;;1.43;0.60;;;;;;;15.68;82.39;99266.75;5036425;28;20195;-51
2022/07/02 06:08:51;;;;;;;1.37;0.63;;;;;;;16.05;81.68;99265.38;5037784;28;20192;-50
2022/07/02 06:11:20;;;;;;;1.37;0.57;;;;;;;16.17;79.75;99266.63;5037620;28;20210;-51
2022/07/02 06:13:47;;;;;;;2.67;0.80;;;;;;;16.31;78.22;99272.97;5037794;28;20188;-51
2022/07/02 06:16:32;;;;;;;3.17;0.80;;;;;;;16.45;76.76;99275.88;5037803;28;20194;-50
2022/07/02 06:18:59;;;;;;;3.30;1.03;;;;;;;16.60;75.76;99270.69;5036140;28;20247;-52
2022/07/02 06:21:26;;;;;;;1.73;0.80;;;;;;;16.75;76.79;99278.69;5037244;28;20224;-52
2022/07/02 06:23:53;;;;;;;1.97;0.73;;;;;;;16.84;73.35;99272.34;5037499;28;20697;-52
2022/07/02 06:26:22;;;;;;;1.77;0.90;;;;;;;17.06;75.70;99281.28;5035870;28;20240;-50
2022/07/02 06:28:49;;;;;;;1.23;0.70;;;;;;;17.23;74.70;99274.03;5036039;28;20204;-51
2022/07/02 06:31:16;;;;;;;1.20;0.90;;;;;;;17.25;69.55;99277.31;5037058;28;20680;-53
2022/07/02 06:33:44;;;;;;;2.13;1.00;;;;;;;17.22;66.03;99280.31;5036998;28;20197;-52
2022/07/02 06:36:14;;;;;;;1.98;0.70;;;;;;;17.31;69.16;99269.69;5037194;28;20328;-51
2022/07/02 06:38:42;;;;;;;3.53;0.97;;;;;;;17.33;65.91;99281.72;5037215;28;20188;-50
2022/07/02 06:44:01;;;;;;;2.33;0.93;;;;;;;17.25;67.07;99274.69;5036811;28;20279;-53
2022/07/02 06:46:28;;;;;;;2.83;1.27;;;;;;;17.52;65.92;99271.63;5036556;28;20240;-50
2022/07/02 06:48:55;;;;;;;4.60;1.33;;;;;;;17.60;66.21;99274.19;5035854;28;20676;-51
2022/07/02 06:51:22;;;;;;;1.47;1.10;;;;;;;17.74;66.81;99269.94;5036643;28;20210;-50
2022/07/02 06:53:50;;;;;;;3.30;1.00;;;;;;;17.84;69.03;99277.56;5035297;28;20193;-51
2022/07/02 06:56:17;;;;;;;3.97;0.97;;;;;;;17.85;68.17;99284.50;5036880;28;20593;-52
2022/07/02 06:58:44;;;;;;;1.37;1.17;;;;;;;17.99;67.39;99280.22;5035438;28;20205;-50
2022/07/02 07:01:13;;;;;;;1.40;1.30;;;;;;;17.98;67.57;99279.41;5036067;28;20708;-51
2022/07/02 07:03:40;;;;;;;3.30;1.30;;;;;;;17.96;67.67;99270.03;5036542;28;20653;-53
2022/07/02 07:06:08;;;;;;;4.00;1.83;;;;;;;17.97;68.60;99277.75;5036978;28;20186;-50
2022/07/02 07:08:35;;;;;;;2.97;1.53;;;;;;;18.04;69.11;99269.94;5035623;28;20208;-53
2022/07/02 07:11:01;;;;;;;3.50;1.40;;;;;;;18.12;68.70;99279.59;5036479;28;20206;-50
2022/07/02 07:13:29;;;;;;;3.33;1.47;;;;;;;18.09;68.18;99270.22;5035963;28;20191;-50
2022/07/02 07:15:55;;;;;;;2.63;1.60;;;;;;;18.09;68.28;99269.41;5035811;28;20182;-50
2022/07/02 07:18:24;;;;;;;6.27;1.70;;;;;;;18.09;67.50;99269.41;5034814;28;20232;-51
2022/07/02 07:20:53;;;;;;;6.50;1.70;;;;;;;18.13;69.04;99265.38;5036375;28;20726;-50
2022/07/02 07:23:20;;;;;;;5.27;1.60;;;;;;;18.27;67.84;99277.75;5036522;28;20207;-53
2022/07/02 07:25:46;;;;;;;3.57;1.70;;;;;;;18.37;67.71;99274.81;5036170;28;20184;-53
2022/07/02 07:28:13;;;;;;;3.90;1.30;;;;;;;18.27;66.35;99274.28;5034931;28;20218;-51
2022/07/02 07:30:42;;;;;;;3.70;1.50;;;;;;;18.26;68.27;99267.38;5035668;28;20286;-51
2022/07/02 07:33:09;;;;;;;3.67;1.70;;;;;;;18.13;66.92;99263.56;5036591;28;20698;-51
2022/07/02 07:35:38;;;;;;;3.50;1.60;;;;;;;18.34;67.50;99258.53;5034812;28;20266;-52
2022/07/02 07:38:05;;;;;;;1.97;1.33;;;;;;;18.44;66.47;99251.91;5034206;28;20191;-52
2022/07/02 07:40:32;;;;;;;2.67;1.10;;;;;;;18.46;67.77;99245.63;5035732;28;20264;-52
2022/07/02 07:43:00;;;;;;;3.57;1.50;;;;;;;18.54;67.06;99240.22;5035672;28;20265;-50
2022/07/02 07:45:28;;;;;;;2.10;1.30;;;;;;;18.53;66.57;99249.16;5035990;28;20249;-51
2022/07/02 07:47:55;;;;;;;3.13;1.53;;;;;;;18.57;67.66;99235.38;5035809;28;20210;-51
2022/07/02 07:50:23;;;;;;;2.23;1.33;;;;;;;18.71;68.01;99246.91;5035773;28;20280;-50
2022/07/02 07:52:52;;;;;;;1.40;1.10;;;;;;;18.87;66.69;99235.25;5035814;28;20721;-51
2022/07/02 07:55:20;;;;;;;3.97;1.70;;;;;;;18.97;65.47;99237.63;5035664;28;20198;-51
2022/07/02 07:57:48;;;;;;;3.00;1.47;;;;;;;18.95;65.99;99230.84;5035912;28;20601;-50
2022/07/02 08:00:16;;;;;;;3.43;1.33;;;;;;;19.00;66.18;99236.41;5034288;28;20683;-51
2022/07/02 08:02:44;;;;;;;2.60;1.40;;;;;;;19.22;67.38;99221.31;5035598;28;20184;-52
2022/07/02 08:05:11;;;;;;;4.07;1.67;;;;;;;19.38;65.56;99230.81;5035851;28;20194;-50
2022/07/02 08:07:40;;;;;;;6.63;1.57;;;;;;;19.40;65.58;99226.13;5033912;28;20275;-50
2022/07/02 08:10:11;;;;;;;2.90;1.50;;;;;;;19.38;65.23;99219.38;5034130;28;20220;-52
2022/07/02 08:12:39;;;;;;;3.30;1.53;;;;;;;19.44;65.83;99222.09;5035453;28;20190;-51
2022/07/02 08:15:26;;;;;;;2.20;1.50;;;;;;;19.43;64.46;99207.22;5035123;28;20252;-52
2022/07/02 08:17:54;;;;;;;3.00;1.67;;;;;;;19.50;65.24;99209.88;5035837;28;20269;-51
2022/07/02 08:20:21;;;;;;;5.90;1.63;;;;;;;19.58;64.45;99211.56;5034911;28;20210;-51
2022/07/02 08:22:50;;;;;;;2.67;1.20;;;;;;;19.55;64.16;99196.09;5035140;28;20210;-50
2022/07/02 08:25:19;;;;;;;4.53;1.70;;;;;;;19.57;65.38;99202.81;5035074;28;20221;-50
2022/07/02 08:27:47;;;;;;;5.17;1.70;;;;;;;19.76;63.73;99197.81;5035473;28;20611;-51
2022/07/02 08:30:14;;;;;;;3.60;1.37;;;;;;;19.89;62.90;99200.53;5034484;28;20220;-50
2022/07/02 08:32:42;;;;;;;2.10;1.30;;;;;;;19.96;63.52;99191.81;5033423;28;20204;-51
2022/07/02 08:35:10;;;;;;;3.30;1.50;;;;;;;20.04;62.93;99204.88;5034550;28;20190;-51
2022/07/02 08:37:37;;;;;;;1.73;1.30;;;;;;;20.19;62.99;99192.25;5033216;28;20191;-52
2022/07/02 08:40:06;;;;;;;4.83;1.23;;;;;;;20.29;61.94;99189.25;5034235;28;20566;-51
2022/07/02 08:42:36;;;;;;;10.27;1.30;;;;;;;20.27;62.22;99185.16;5034183;28;20193;-51
2022/07/02 08:45:04;;;;;;;2.27;1.27;;;;;;;20.36;60.55;99181.28;5034145;28;20186;-51
2022/07/02 08:47:32;;;;;;;4.27;1.03;;;;;;;20.42;61.59;99177.03;5033766;28;20225;-50
2022/07/02 08:50:00;;;;;;;1.70;1.00;;;;;;;20.54;61.24;99169.28;5033928;28;20258;-51
2022/07/02 08:52:28;;;;;;;1.37;0.90;;;;;;;20.70;61.61;99171.56;5033779;28;20212;-53
2022/07/02 08:54:57;;;;;;;1.30;1.07;;;;;;;20.87;61.38;99166.69;5033750;28;20187;-52
2022/07/02 08:57:52;;;;;;;0.80;0.70;;;;;;;21.05;57.58;99179.34;5033653;28;20187;-51
2022/07/02 09:00:21;;;;;;;2.20;0.60;;;;;;;21.24;57.17;99179.50;5033269;28;20205;-51
2022/07/02 09:02:51;;;;;;;2.63;0.50;;;;;;;21.46;51.85;99171.28;5033850;28;20248;-52
2022/07/02 09:05:20;;;;;;;3.17;1.00;;;;;;;21.53;53.85;99169.41;5032251;28;20194;-53
2022/07/02 09:07:49;;;;;;;1.93;0.90;;;;;;;21.64;55.02;99171.47;5033698;28;20265;-51
2022/07/02 09:10:17;;;;;;;1.67;0.70;;;;;;;21.71;51.51;99160.00;5033445;28;20212;-52
2022/07/02 09:12:46;;;;;;;1.40;0.50;;;;;;;21.79;46.64;99159.75;5033563;28;20189;-52
2022/07/02 09:15:16;;;;;;;1.03;0.50;;;;;;;21.85;48.56;99158.91;5033507;28;20229;-51
2022/07/02 09:17:44;;;;;;;2.13;0.70;;;;;;;21.95;50.10;99166.41;5033084;28;20238;-51
2022/07/02 09:20:12;;;;;;;2.03;0.60;;;;;;;22.06;53.71;99171.06;5032766;28;20275;-51
2022/07/02 09:22:42;;;;;;;1.67;0.70;;;;;;;22.09;50.21;99167.97;5033330;28;20222;-52
2022/07/02 09:25:13;;;;;;;1.43;0.53;;;;;;;22.15;50.01;99155.69;5034506;28;20609;-54
2022/07/02 09:27:40;;;;;;;1.23;0.50;;;;;;;22.28;45.01;99152.13;5035425;28;20212;-51
2022/07/02 09:30:10;;;;;;;2.67;0.50;;;;;;;22.40;46.50;99152.25;5034476;28;20213;-53
2022/07/02 09:35:38;;;;;;;0.77;0.20;;;;;;;22.55;40.60;99166.06;5033843;28;20199;-51
2022/07/02 09:38:09;;;;;;;2.73;0.50;;;;;;;22.58;40.84;99166.69;5034395;28;20188;-53
2022/07/02 09:40:36;;;;;;;2.57;0.30;;;;;;;22.75;39.07;99162.44;5034450;28;20308;-54
2022/07/02 09:43:27;;;;;;;0.40;0.30;;;;;;;22.81;39.72;99164.25;5034429;28;20554;-52
2022/07/02 09:45:54;;;;;;;1.10;0.40;;;;;;;22.93;39.12;99171.50;5033273;28;20193;-52
2022/07/02 09:48:22;;;;;;;1.13;0.30;;;;;;;22.94;38.57;99176.59;5034078;28;20227;-52
2022/07/02 09:50:49;;;;;;;1.50;0.47;;;;;;;23.07;38.97;99182.84;5034096;28;20232;-52
2022/07/02 09:53:17;;;;;;;1.13;0.37;;;;;;;23.04;38.97;99180.63;5034188;28;20241;-52
2022/07/02 09:55:48;;;;;;;0.47;0.30;;;;;;;23.03;38.52;99173.66;5034419;28;20200;-52
2022/07/02 09:58:23;;;;;;;0.47;0.40;;;;;;;23.06;39.30;99178.56;5033949;28;20196;-52
2022/07/02 10:00:50;;;;;;;1.40;0.60;;;;;;;23.06;38.67;99174.06;5033697;28;20202;-52
2022/07/02 10:03:18;;;;;;;0.50;0.30;;;;;;;23.17;38.98;99179.69;5034250;28;20181;-52
2022/07/02 10:05:52;;;;;;;1.50;0.50;;;;;;;23.19;37.90;99175.75;5034130;28;20194;-52
2022/07/02 10:08:19;;;;;;;0.57;0.23;;;;;;;23.35;38.92;99170.94;5034453;28;20229;-50
2022/07/02 10:11:06;;;;;;;0.70;0.40;;;;;;;23.40;39.38;99169.22;5033969;28;20364;-50
2022/07/02 10:13:35;;;;;;;0.70;0.40;;;;;;;23.41;39.26;99152.19;5033544;28;20187;-49
2022/07/02 10:16:05;;;;;;;1.33;0.40;;;;;;;23.42;35.94;99150.38;5034116;28;20234;-53
2022/07/02 10:18:35;;;;;;;0.30;0.30;;;;;;;23.54;38.12;99155.75;5032376;28;20213;-53
2022/07/02 10:21:04;;;;;;;0.40;0.20;;;;;;;23.67;36.59;99149.47;5033378;28;20278;-54
2022/07/02 10:23:33;;;;;;;1.63;0.30;;;;;;;23.74;36.49;99152.88;5034510;28;20628;-52
2022/07/02 10:26:01;;;;;;;0.40;0.40;;;;;;;23.74;37.27;99145.66;5037273;28;20564;-52
2022/07/02 10:28:28;;;;;;;0.40;0.40;;;;;;;23.89;36.87;99147.94;5035938;28;20617;-53
2022/07/02 10:30:56;;;;;;;0.50;0.40;;;;;;;23.99;34.77;99147.44;5037395;28;20300;-54
2022/07/02 10:33:29;;;;;;;0.70;0.50;;;;;;;24.00;34.61;99146.38;5035817;28;20242;-52
2022/07/02 10:35:59;;;;;;;1.10;0.50;;;;;;;23.90;34.23;99135.41;5036758;28;20194;-52
2022/07/02 10:38:33;;;;;;;1.60;0.33;;;;;;;23.98;34.79;99132.44;5036028;28;20199;-54
2022/07/02 10:41:01;;;;;;;0.40;0.40;;;;;;;24.07;36.40;99134.81;5035652;28;20309;-52
2022/07/02 10:43:29;;;;;;;0.87;0.40;;;;;;;24.14;37.72;99132.88;5036911;28;20190;-52
2022/07/02 10:46:04;;;;;;;2.30;0.40;;;;;;;24.21;35.41;99133.59;5034936;28;20195;-52
2022/07/02 10:48:34;;;;;;;0.40;0.40;;;;;;;24.36;35.12;99129.69;5036302;28;20214;-51
2022/07/02 10:51:02;;;;;;;0.67;0.40;;;;;;;24.36;35.19;99125.16;5036611;28;20248;-54
2022/07/02 10:53:34;;;;;;;0.93;0.50;;;;;;;24.45;36.24;99117.59;5036629;28;20198;-51
2022/07/02 10:56:03;;;;;;;1.03;0.40;;;;;;;24.41;36.37;99116.44;5035543;28;20196;-51
2022/07/02 10:58:32;;;;;;;0.90;0.37;;;;;;;24.55;37.02;99120.53;5036421;28;20188;-53
2022/07/02 11:01:09;;;;;;;0.53;0.43;;;;;;;24.71;37.83;99119.03;5036126;28;20215;-50
2022/07/02 11:03:36;;;;;;;1.80;0.50;;;;;;;24.81;38.58;99120.34;5036209;28;20555;-53
2022/07/02 11:06:04;;;;;;;1.50;0.30;;;;;;;24.69;35.81;99121.13;5034835;28;20276;-51
2022/07/02 11:08:46;;;;;;;1.20;0.40;;;;;;;24.71;37.38;99123.56;5035916;28;20212;-53
2022/07/02 11:11:16;;;;;;;1.37;0.50;;;;;;;24.84;36.22;99123.34;5034383;28;20306;-50
2022/07/02 11:13:46;;;;;;;1.00;0.50;;;;;;;24.93;36.88;99118.47;5035902;28;20202;-51
2022/07/02 11:16:21;;;;;;;2.13;0.40;;;;;;;24.97;36.06;99114.28;5035676;28;20245;-51
2022/07/02 11:18:50;;;;;;;0.40;0.30;;;;;;;25.05;34.54;99110.47;5035902;28;20180;-51
2022/07/02 11:21:17;;;;;;;1.40;0.57;;;;;;;25.14;34.84;99116.25;5035417;28;20302;-52
2022/07/02 11:23:46;;;;;;;1.57;0.30;;;;;;;25.10;37.23;99118.59;5035544;28;20181;-51
2022/07/02 11:26:21;;;;;;;0.67;0.40;;;;;;;25.23;35.62;99108.69;5035472;28;20200;-51
2022/07/02 11:28:49;;;;;;;0.93;0.47;;;;;;;25.20;35.99;99107.28;5035420;28;20707;-50
2022/07/02 11:31:18;;;;;;;1.07;0.30;;;;;;;25.20;35.05;99102.78;5033631;28;20235;-51
2022/07/02 11:33:46;;;;;;;0.90;0.60;;;;;;;25.34;35.49;99091.81;5033987;28;20198;-53
2022/07/02 11:36:14;;;;;;;0.43;0.40;;;;;;;25.39;34.91;99085.75;5033440;28;20200;-51
2022/07/02 11:38:44;;;;;;;1.67;0.37;;;;;;;25.29;34.61;99081.03;5034986;28;20582;-51
2022/07/02 11:41:23;;;;;;;0.70;0.40;;;;;;;25.40;35.34;99080.19;5034506;28;20215;-53
2022/07/02 11:43:52;;;;;;;2.00;0.40;;;;;;;25.56;37.82;99073.31;5033351;28;20210;-53
2022/07/02 11:46:21;;;;;;;0.50;0.50;;;;;;;25.62;38.27;99066.16;5032950;28;20216;-53
2022/07/02 11:48:49;;;;;;;1.13;0.50;;;;;;;25.61;38.49;99061.88;5034596;28;20295;-54
2022/07/02 11:51:19;;;;;;;0.80;0.40;;;;;;;25.66;36.04;99067.31;5034148;28;20211;-52
2022/07/02 11:53:55;;;;;;;0.63;0.40;;;;;;;25.66;36.91;99061.19;5035012;28;20590;-52
2022/07/02 11:56:24;;;;;;;1.23;0.30;;;;;;;25.72;37.20;99053.00;5034514;28;20281;-53